Terminal Aerodrome Forecast
Issued by NWS

Home | Current Version | Previous Version | Text Only | Print | Product List | Glossary Off
Versions: 1 2 3 4 5 6 7 8 9 10 11 12 13 14 15 16 17 18

000
FTUS43 KUNR 252300
TAFGCC
TAF
KGCC 252320Z 2600/2624 32015G25KT 3SM -SN BR BKN025
      TEMPO 2600/2602 1SM -SN BR BKN012
     FM260500 31010KT 4SM -SN BR BKN012
     FM261700 17009KT P6SM BKN020=

USA.gov is the U.S. government's official web portal to all federal, state and local government web resources and services.